Latest Weather Observations for Walpeup

IDV60801

Issued at 8:02 pm EST Tuesday 28 July 2015 (issued every 30 minutes, with the page automatically refreshed every 10 minutes)

About weather observations | Map of weather stations | Latest weather observations for VIC | Other Formats
Station Details ID: 076064 Name: WALPEUP RESEARCH Lat: -35.12 Lon: 142.00 Height: 105.0 m
Data from the previous 72 hours. | See also: Recent months at Walpeup
Date/Time
EST
Temp
°C
App
Temp
°C
Dew
Point
Rel
Hum
%
Delta-T
°C
Wind Press
QNH
hPa
Press
MSL
hPa
Rain
since 9 am
mm
Dir
 
Spd
km/h
Gust
km/h
Spd
kts
Gust
kts
28/08:00pm 9.9 7.8 6.6 80 1.6 NW 7 11 4 6 - - 0.2
28/07:30pm 9.8 7.9 6.5 80 1.5 WNW 6 7 3 4 - - 0.2
28/07:00pm 11.1 8.9 5.2 67 2.7 W 6 7 3 4 - - 0.2
28/06:30pm 11.4 9.2 5.1 65 2.9 WNW 6 9 3 5 - - 0.2
28/06:00pm 11.7 10.7 5.8 67 2.8 CALM 0 0 0 0 - - 0.2
28/05:30pm 12.2 11.2 5.4 63 3.2 CALM 0 0 0 0 - - 0.2
28/05:00pm 12.5 11.4 5.2 61 3.4 CALM 0 0 0 0 - - 0.2
28/04:30pm 13.0 10.8 5.2 59 3.6 W 6 7 3 4 - - 0.2
28/04:00pm 12.9 10.5 5.1 59 3.6 W 7 11 4 6 - - 0.2
28/03:30pm 13.0 10.8 6.1 63 3.3 W 7 15 4 8 - - 0.2
28/03:00pm 14.3 11.2 5.7 56 4.1 WNW 11 19 6 10 - - 0.2
28/02:30pm 13.5 10.8 5.7 59 3.7 W 9 15 5 8 - - 0.0
28/02:00pm 13.1 10.9 6.2 63 3.3 W 7 13 4 7 - - 0.0
28/01:30pm 12.5 9.5 5.9 64 3.1 WNW 11 15 6 8 - - 0.0
28/01:00pm 12.6 10.6 6.9 68 2.8 WNW 7 11 4 6 - - 0.0
28/12:30pm 12.3 9.7 7.6 73 2.3 W 11 17 6 9 - - 0.0
28/12:00pm 11.5 9.7 8.0 79 1.7 WSW 7 19 4 10 - - 0.0
28/11:30am 10.6 9.5 10.6 100 0.0 WSW 7 13 4 7 - - 0.0
28/11:00am 8.9 7.3 8.9 100 0.0 W 7 11 4 6 - - 0.0
28/10:30am 8.3 6.6 8.3 100 0.0 W 7 11 4 6 - - 0.0
28/10:00am 7.2 5.2 7.2 100 0.0 W 7 13 4 7 - - 0.0
28/09:30am 6.0 3.9 6.0 100 0.0 W 6 9 3 5 - - 0.0
28/09:00am 4.6 2.6 4.5 99 0.0 W 4 6 2 3 - - 0.2
28/08:30am 2.4 0.0 2.3 99 0.0 W 4 6 2 3 - - 0.2
28/08:00am 1.6 -0.9 1.5 99 0.0 W 4 6 2 3 - - 0.2
28/07:30am 1.2 -1.4 1.1 99 0.0 W 4 6 2 3 - - 0.2
28/07:00am 1.5 -1.0 1.4 99 0.0 W 4 6 2 3 - - 0.2
28/06:30am 1.7 -0.8 1.6 99 0.0 W 4 4 2 2 - - 0.2
28/06:00am 1.6 -0.9 1.5 99 0.0 W 4 6 2 3 - - 0.2
28/05:30am 2.1 -0.3 2.0 99 0.0 W 4 6 2 3 - - 0.2
28/05:00am 2.2 -0.6 2.1 99 0.0 WSW 6 6 3 3 - - 0.2
28/04:30am 2.4 -0.4 2.3 99 0.0 W 6 6 3 3 - - 0.2
28/04:00am 2.7 0.0 2.6 99 0.0 W 6 7 3 4 - - 0.2
28/03:30am 2.8 0.1 2.7 99 0.0 W 6 7 3 4 - - 0.2
28/03:00am 2.6 -0.1 2.5 99 0.0 W 6 7 3 4 - - 0.2
28/02:30am 3.0 0.3 2.9 99 0.0 W 6 7 3 4 - - 0.2
28/02:00am 3.1 0.5 3.0 99 0.0 W 6 7 3 4 - - 0.2
28/01:30am 3.4 0.8 3.3 99 0.0 WNW 6 7 3 4 - - 0.2
28/01:00am 3.4 0.6 3.3 99 0.0 WNW 7 7 4 4 - - 0.2
28/12:30am 3.6 1.1 3.5 99 0.0 WNW 6 7 3 4 - - 0.2
28/12:00am 3.9 1.4 3.8 99 0.0 WNW 6 7 3 4 - - 0.2
 
Date/Time
EST
Temp
°C
App
Temp
°C
Dew
Point
Rel
Hum
%
Delta-T
°C
Wind Press
QNH
hPa
Press
MSL
hPa
Rain
since 9 am
mm
Dir
 
Spd
km/h
Gust
km/h
Spd
kts
Gust
kts
27/11:30pm 4.4 2.0 4.3 99 0.0 WNW 6 7 3 4 - - 0.2
27/11:00pm 5.2 2.8 5.1 99 0.0 W 7 7 4 4 - - 0.2
27/10:30pm 5.6 3.3 5.5 99 0.0 W 7 11 4 6 - - 0.2
27/10:00pm 6.0 3.9 5.9 99 0.0 W 6 7 3 4 - - 0.2
27/09:30pm 6.3 4.3 6.2 99 0.0 WNW 6 7 3 4 - - 0.2
27/09:00pm 6.5 4.9 6.4 99 0.0 NW 4 6 2 3 - - 0.2
27/08:30pm 6.3 4.3 6.2 99 0.0 NW 6 7 3 4 - - 0.2
27/08:00pm 6.4 4.2 6.0 97 0.2 NW 7 9 4 5 - - 0.2
27/07:30pm 6.0 3.6 5.1 94 0.4 NW 7 7 4 4 - - 0.2
27/07:00pm 7.0 4.3 5.8 92 0.5 WNW 9 13 5 7 - - 0.2
27/06:30pm 7.8 4.8 5.8 87 0.9 WNW 11 13 6 7 - - 0.2
27/06:00pm 9.1 6.4 5.8 80 1.5 WNW 9 13 5 7 - - 0.2
27/05:30pm 9.9 6.7 5.3 73 2.1 W 11 15 6 8 - - 0.2
27/05:00pm 10.7 7.0 6.1 73 2.2 W 15 22 8 12 - - 0.2
27/04:30pm 10.9 7.7 5.2 68 2.6 W 11 19 6 10 - - 0.2
27/04:00pm 11.8 8.6 6.7 71 2.4 WSW 13 19 7 10 - - 0.2
27/03:30pm 11.3 6.7 5.8 69 2.6 WSW 19 33 10 18 - - 0.2
27/03:00pm 11.5 8.6 6.6 72 2.3 W 11 17 6 9 - - 0.2
27/02:30pm 10.3 6.3 6.5 77 1.8 WSW 17 22 9 12 - - 0.2
27/02:00pm 11.3 7.4 5.2 66 2.8 W 15 24 8 13 - - 0.2
27/01:30pm 10.2 7.5 7.3 82 1.4 W 11 15 6 8 - - 0.2
27/01:00pm 10.9 6.5 4.8 66 2.8 WSW 17 24 9 13 - - 0.0
27/12:30pm 11.5 6.9 5.6 67 2.7 W 19 28 10 15 - - 0.0
27/12:00pm 10.6 6.4 5.8 72 2.2 W 17 24 9 13 - - 0.0
27/11:30am 9.8 5.7 6.0 77 1.8 W 17 24 9 13 - - 0.0
27/11:00am 8.4 4.1 5.2 80 1.4 W 17 22 9 12 - - 0.0
27/10:30am 7.2 3.7 5.3 88 0.8 WNW 13 17 7 9 - - 0.0
27/10:00am 5.6 2.5 5.5 99 0.0 WNW 11 15 6 8 - - 0.0
27/09:30am 3.9 0.5 3.8 99 0.0 WNW 11 15 6 8 - - 0.0
27/09:00am 2.8 -0.5 2.7 99 0.0 NW 9 13 5 7 - - 1.8
27/08:30am 2.0 -1.0 1.9 99 0.0 NW 7 9 4 5 - - 1.8
27/08:00am 0.6 -2.6 0.5 99 0.0 NW 7 7 4 4 - - 1.8
27/07:30am 0.3 -2.8 0.2 99 0.0 NW 6 6 3 3 - - 1.8
27/07:00am 0.4 -2.9 0.3 99 0.0 NW 7 7 4 4 - - 1.8
27/06:30am 0.5 -2.6 0.4 99 0.0 NW 6 7 3 4 - - 1.8
27/06:00am 0.7 -2.5 0.6 99 0.0 NW 7 7 4 4 - - 1.8
27/05:30am 0.3 -3.0 0.2 99 0.0 NW 7 7 4 4 - - 1.8
27/05:00am 0.8 -2.2 0.7 99 0.0 WNW 6 6 3 3 - - 1.8
27/04:30am 1.2 -1.8 1.1 99 0.0 W 6 7 3 4 - - 1.8
27/04:00am 1.2 -1.8 1.1 99 0.0 WNW 6 7 3 4 - - 1.8
27/03:30am 1.4 -1.5 1.3 99 0.0 WNW 6 6 3 3 - - 1.8
27/03:00am 1.8 -1.2 1.7 99 0.0 W 7 9 4 5 - - 1.8
27/02:30am 2.2 -1.2 2.1 99 0.0 WNW 9 11 5 6 - - 1.8
27/02:00am 2.2 -0.6 2.1 99 0.0 WNW 6 7 3 4 - - 1.8
27/01:30am 2.0 -0.9 1.7 98 0.1 WNW 6 7 3 4 - - 1.8
27/01:00am 2.0 -0.9 1.6 97 0.2 NW 6 7 3 4 - - 1.8
27/12:30am 2.5 -0.5 2.1 97 0.2 WNW 7 9 4 5 - - 1.8
27/12:00am 3.0 -0.3 2.4 96 0.2 WNW 9 11 5 6 - - 1.6
 
Date/Time
EST
Temp
°C
App
Temp
°C
Dew
Point
Rel
Hum
%
Delta-T
°C
Wind Press
QNH
hPa
Press
MSL
hPa
Rain
since 9 am
mm
Dir
 
Spd
km/h
Gust
km/h
Spd
kts
Gust
kts
26/11:30pm 3.1 -0.2 2.4 95 0.3 WNW 9 11 5 6 - - 1.6
26/11:00pm 3.3 0.0 2.4 94 0.4 WNW 9 13 5 7 - - 1.6
26/10:30pm 3.6 -0.1 2.6 93 0.4 WNW 11 15 6 8 - - 1.6
26/10:00pm 3.3 -0.1 2.0 91 0.5 WNW 9 13 5 7 - - 1.6
26/09:30pm 3.6 0.2 2.1 90 0.6 WNW 9 13 5 7 - - 1.6
26/09:00pm 3.9 0.5 2.1 88 0.7 WNW 9 11 5 6 - - 1.6
26/08:30pm 4.3 1.3 2.3 87 0.8 W 7 11 4 6 - - 1.6
26/08:00pm 5.1 2.2 2.6 84 1.0 W 7 11 4 6 - - 1.6
26/07:30pm 6.4 2.5 3.4 81 1.3 WSW 13 20 7 11 - - 1.6
26/07:00pm 5.9 2.8 3.7 86 0.9 W 9 15 5 8 - - 1.6
26/06:30pm 6.5 2.7 4.0 84 1.1 W 13 19 7 10 - - 1.6
26/06:00pm 6.8 3.4 3.8 81 1.3 W 11 13 6 7 - - 1.6
26/05:30pm 8.2 3.6 3.7 73 1.9 W 17 26 9 14 - - 1.6
26/05:00pm 9.3 3.8 4.1 70 2.3 WSW 22 33 12 18 - - 1.6
26/04:30pm 10.0 4.0 3.3 63 2.9 W 24 35 13 19 - - 1.6
26/04:00pm 10.5 4.7 4.2 65 2.8 WSW 24 33 13 18 - - 1.6
26/03:30pm 9.2 4.4 5.8 79 1.6 WSW 20 37 11 20 - - 1.6
26/03:13pm 9.4 2.7 3.6 67 2.5 WSW 28 54 15 29 - - 1.2
26/03:00pm 10.9 5.0 4.1 63 3.0 W 24 33 13 18 - - 1.2
26/02:30pm 10.7 6.0 5.9 72 2.2 W 20 30 11 16 - - 1.2
26/02:00pm 8.8 2.7 4.6 75 1.9 W 26 46 14 25 - - 1.2
26/01:30pm 9.1 3.7 4.3 72 2.1 W 22 33 12 18 - - 1.0
26/01:00pm 8.9 5.7 6.9 87 0.9 WSW 13 22 7 12 - - 1.0
26/12:35pm 7.0 0.0 4.3 83 1.2 WSW 30 48 16 26 - - 0.8
26/12:30pm 9.6 2.6 4.0 68 2.5 W 30 48 16 26 - - 0.2
26/12:00pm 10.4 4.2 4.5 67 2.7 W 26 35 14 19 - - 0.2
26/11:30am 9.7 3.8 4.1 68 2.5 W 24 35 13 19 - - 0.2
26/11:00am 8.8 3.3 4.2 73 2.0 W 22 33 12 18 - - 0.2
26/10:30am 8.5 2.9 5.3 80 1.4 W 24 37 13 20 - - 0.2
26/10:00am 8.6 3.4 5.4 80 1.4 WNW 22 30 12 16 - - 0.2
26/09:30am 7.8 3.0 5.4 85 1.1 W 20 30 11 16 - - 0.2
26/09:00am 7.5 2.8 5.0 84 1.1 WNW 19 26 10 14 - - 2.2
26/08:30am 7.0 3.0 4.8 86 1.0 WNW 15 24 8 13 - - 2.2
26/08:00am 6.3 2.2 4.5 88 0.8 WNW 15 20 8 11 - - 2.2
26/07:30am 7.2 2.4 4.9 85 1.0 W 19 26 10 14 - - 2.2
26/07:00am 6.8 2.1 5.3 90 0.7 WNW 19 26 10 14 - - 2.2
26/06:30am 6.2 2.2 5.0 92 0.5 NW 15 20 8 11 - - 2.2
26/06:00am 6.3 3.1 4.9 91 0.6 WNW 11 15 6 8 - - 2.2
26/05:30am 7.2 2.9 5.3 88 0.8 W 17 22 9 12 - - 2.2
26/05:00am 7.8 3.6 5.6 86 1.0 W 17 26 9 14 - - 2.2
26/04:30am 8.5 3.8 6.1 85 1.1 W 20 30 11 16 - - 2.2
26/04:00am 8.9 4.3 6.3 84 1.2 W 20 28 11 15 - - 2.2
26/03:30am 9.5 5.1 7.3 86 1.0 W 20 32 11 17 - - 2.2
26/03:00am 9.7 5.6 8.5 92 0.6 W 20 26 11 14 - - 2.2
26/02:30am 9.8 5.5 9.5 98 0.2 W 22 30 12 16 - - 2.0
26/02:00am 9.9 5.7 9.6 98 0.2 WNW 22 30 12 16 - - 2.0
26/01:33am 9.8 3.7 8.4 91 0.7 W 30 48 16 26 - - 1.6
26/01:30am 9.9 3.2 8.2 89 0.8 W 33 48 18 26 - - 1.4
26/01:24am 11.0 3.7 7.1 77 1.9 WNW 35 48 19 26 - - 0.8
26/01:00am 12.7 5.9 6.7 67 2.9 NW 32 46 17 25 - - 0.0
26/12:30am 12.7 5.6 6.3 65 3.1 NNW 33 46 18 25 - - 0.0
26/12:00am 12.5 5.3 5.9 64 3.1 NNW 33 48 18 26 - - 0.0
 
Date/Time
EST
Temp
°C
App
Temp
°C
Dew
Point
Rel
Hum
%
Delta-T
°C
Wind Press
QNH
hPa
Press
MSL
hPa
Rain
since 9 am
mm
Dir
 
Spd
km/h
Gust
km/h
Spd
kts
Gust
kts
25/11:30pm 12.7 5.4 5.6 62 3.3 NNW 33 43 18 23 - - 0.0
25/11:00pm 13.3 6.5 5.2 58 3.8 NNW 30 41 16 22 - - 0.0
25/10:30pm 13.5 6.7 5.2 57 3.9 NNW 30 44 16 24 - - 0.0
25/10:00pm 13.4 7.0 5.1 57 3.9 NNW 28 39 15 21 - - 0.0
25/09:30pm 12.4 7.0 4.6 59 3.6 N 22 35 12 19 - - 0.0
25/09:00pm 12.1 7.0 4.3 59 3.5 N 20 28 11 15 - - 0.0
25/08:30pm 11.9 7.4 4.2 59 3.5 NNW 17 24 9 13 - - 0.0

Other Formats:

Comma delimited format used in spreadsheet applications
http://www.bom.gov.au/fwo/IDV60801/IDV60801.95831.axf

JavaScript Object Notation format (JSON) in row-major order
http://www.bom.gov.au/fwo/IDV60801/IDV60801.95831.json